sensor_id;sensor_type;location;lat;lon;timestamp;pressure;altitude;pressure_sealevel;temperature;humidity
71774;BME280;59607;52.130;5.430;2023-11-21T00:00:55;101161.31;;;6.84;100.00
71774;BME280;59607;52.130;5.430;2023-11-21T00:03:24;101164.06;;;6.82;100.00
71774;BME280;59607;52.130;5.430;2023-11-21T00:05:54;101168.44;;;6.82;100.00
71774;BME280;59607;52.130;5.430;2023-11-21T00:08:20;101167.38;;;6.84;100.00
71774;BME280;59607;52.130;5.430;2023-11-21T00:10:50;101164.75;;;6.84;100.00
71774;BME280;59607;52.130;5.430;2023-11-21T00:13:24;101175.44;;;6.81;100.00
71774;BME280;59607;52.130;5.430;2023-11-21T00:16:05;101169.66;;;6.77;100.00
71774;BME280;59607;52.130;5.430;2023-11-21T00:18:39;101171.56;;;6.75;100.00
71774;BME280;59607;52.130;5.430;2023-11-21T00:21:06;101170.09;;;6.83;100.00
71774;BME280;59607;52.130;5.430;2023-11-21T00:23:36;101171.34;;;6.88;100.00
71774;BME280;59607;52.130;5.430;2023-11-21T00:26:03;101183.44;;;6.89;100.00
71774;BME280;59607;52.130;5.430;2023-11-21T00:28:30;101177.28;;;6.90;100.00
71774;BME280;59607;52.130;5.430;2023-11-21T00:31:00;101183.19;;;6.93;100.00
71774;BME280;59607;52.130;5.430;2023-11-21T00:33:29;101187.44;;;6.94;100.00
71774;BME280;59607;52.130;5.430;2023-11-21T00:35:56;101183.06;;;6.94;100.00
71774;BME280;59607;52.130;5.430;2023-11-21T00:38:25;101189.91;;;6.95;100.00
71774;BME280;59607;52.130;5.430;2023-11-21T00:40:55;101184.00;;;6.93;100.00
71774;BME280;59607;52.130;5.430;2023-11-21T00:43:28;101190.88;;;6.94;100.00
71774;BME280;59607;52.130;5.430;2023-11-21T00:45:57;101190.19;;;6.92;100.00
71774;BME280;59607;52.130;5.430;2023-11-21T00:48:23;101188.50;;;6.91;100.00
71774;BME280;59607;52.130;5.430;2023-11-21T00:50:53;101190.19;;;6.92;100.00
71774;BME280;59607;52.130;5.430;2023-11-21T00:53:23;101186.28;;;6.86;100.00
71774;BME280;59607;52.130;5.430;2023-11-21T00:55:49;101192.22;;;6.88;100.00
71774;BME280;59607;52.130;5.430;2023-11-21T00:58:20;101192.09;;;6.90;100.00
71774;BME280;59607;52.130;5.430;2023-11-21T01:00:47;101193.84;;;6.89;100.00
71774;BME280;59607;52.130;5.430;2023-11-21T01:03:17;101203.34;;;6.90;100.00
71774;BME280;59607;52.130;5.430;2023-11-21T01:05:44;101211.16;;;6.90;100.00
71774;BME280;59607;52.130;5.430;2023-11-21T01:08:11;101221.72;;;6.89;100.00
71774;BME280;59607;52.130;5.430;2023-11-21T01:10:41;101217.31;;;6.89;100.00
71774;BME280;59607;52.130;5.430;2023-11-21T01:13:08;101223.13;;;6.93;100.00
71774;BME280;59607;52.130;5.430;2023-11-21T01:15:34;101210.78;;;6.95;100.00
71774;BME280;59607;52.130;5.430;2023-11-21T01:18:01;101225.72;;;6.93;100.00
71774;BME280;59607;52.130;5.430;2023-11-21T01:20:43;101223.56;;;6.98;100.00
71774;BME280;59607;52.130;5.430;2023-11-21T01:23:16;101220.81;;;7.00;100.00
71774;BME280;59607;52.130;5.430;2023-11-21T01:25:44;101219.59;;;7.04;100.00
71774;BME280;59607;52.130;5.430;2023-11-21T01:28:17;101211.78;;;7.04;100.00
71774;BME280;59607;52.130;5.430;2023-11-21T01:30:44;101215.91;;;7.07;100.00
71774;BME280;59607;52.130;5.430;2023-11-21T01:33:14;101215.91;;;7.07;100.00
71774;BME280;59607;52.130;5.430;2023-11-21T01:35:44;101218.53;;;7.07;100.00
71774;BME280;59607;52.130;5.430;2023-11-21T01:38:13;101225.00;;;7.12;100.00
71774;BME280;59607;52.130;5.430;2023-11-21T01:40:43;101222.00;;;7.17;100.00
71774;BME280;59607;52.130;5.430;2023-11-21T01:43:11;101227.59;;;7.12;100.00
71774;BME280;59607;52.130;5.430;2023-11-21T01:45:42;101227.72;;;7.11;100.00
71774;BME280;59607;52.130;5.430;2023-11-21T01:48:13;101229.13;;;7.15;100.00
71774;BME280;59607;52.130;5.430;2023-11-21T01:50:43;101233.97;;;7.20;100.00
71774;BME280;59607;52.130;5.430;2023-11-21T01:53:13;101235.59;;;7.21;100.00
71774;BME280;59607;52.130;5.430;2023-11-21T01:55:41;101243.75;;;7.27;100.00
71774;BME280;59607;52.130;5.430;2023-11-21T01:58:15;101233.19;;;7.29;100.00
71774;BME280;59607;52.130;5.430;2023-11-21T02:00:46;101230.69;;;7.27;100.00
71774;BME280;59607;52.130;5.430;2023-11-21T02:03:15;101241.13;;;7.27;100.00
71774;BME280;59607;52.130;5.430;2023-11-21T02:05:42;101244.19;;;7.33;100.00
71774;BME280;59607;52.130;5.430;2023-11-21T02:08:12;101243.47;;;7.31;100.00
71774;BME280;59607;52.130;5.430;2023-11-21T02:10:44;101258.59;;;7.37;100.00
71774;BME280;59607;52.130;5.430;2023-11-21T02:13:10;101262.50;;;7.43;100.00
71774;BME280;59607;52.130;5.430;2023-11-21T02:15:42;101269.22;;;7.45;100.00
71774;BME280;59607;52.130;5.430;2023-11-21T02:18:09;101264.44;;;7.50;100.00
71774;BME280;59607;52.130;5.430;2023-11-21T02:21:01;101265.00;;;7.54;100.00
71774;BME280;59607;52.130;5.430;2023-11-21T02:23:30;101272.56;;;7.57;100.00
71774;BME280;59607;52.130;5.430;2023-11-21T02:25:57;101271.59;;;7.58;100.00
71774;BME280;59607;52.130;5.430;2023-11-21T02:28:28;101268.59;;;7.63;100.00
71774;BME280;59607;52.130;5.430;2023-11-21T02:30:55;101271.06;;;7.64;100.00
71774;BME280;59607;52.130;5.430;2023-11-21T02:33:27;101272.63;;;7.67;100.00
71774;BME280;59607;52.130;5.430;2023-11-21T02:35:57;101270.69;;;7.69;100.00
71774;BME280;59607;52.130;5.430;2023-11-21T02:38:26;101277.31;;;7.73;100.00
71774;BME280;59607;52.130;5.430;2023-11-21T02:40:57;101278.81;;;7.76;100.00
71774;BME280;59607;52.130;5.430;2023-11-21T02:43:24;101277.69;;;7.78;100.00
71774;BME280;59607;52.130;5.430;2023-11-21T02:46:05;101284.19;;;7.84;100.00
71774;BME280;59607;52.130;5.430;2023-11-21T02:48:46;101279.69;;;7.86;100.00
71774;BME280;59607;52.130;5.430;2023-11-21T02:51:15;101281.19;;;7.89;100.00
71774;BME280;59607;52.130;5.430;2023-11-21T02:53:42;101279.28;;;7.91;100.00
71774;BME280;59607;52.130;5.430;2023-11-21T02:56:08;101283.53;;;7.92;100.00
71774;BME280;59607;52.130;5.430;2023-11-21T02:58:34;101275.41;;;7.95;100.00
71774;BME280;59607;52.130;5.430;2023-11-21T03:01:01;101277.09;;;7.96;100.00
71774;BME280;59607;52.130;5.430;2023-11-21T03:03:30;101271.03;;;7.96;100.00
71774;BME280;59607;52.130;5.430;2023-11-21T03:05:57;101277.75;;;7.98;100.00
71774;BME280;59607;52.130;5.430;2023-11-21T03:08:28;101282.03;;;7.99;100.00
71774;BME280;59607;52.130;5.430;2023-11-21T03:10:55;101281.22;;;7.99;100.00
71774;BME280;59607;52.130;5.430;2023-11-21T03:13:22;101269.91;;;7.98;100.00
71774;BME280;59607;52.130;5.430;2023-11-21T03:15:54;101270.63;;;8.00;100.00
71774;BME280;59607;52.130;5.430;2023-11-21T03:18:21;101273.09;;;8.02;100.00
71774;BME280;59607;52.130;5.430;2023-11-21T03:21:11;101270.34;;;8.03;100.00
71774;BME280;59607;52.130;5.430;2023-11-21T03:23:48;101281.22;;;8.09;100.00
71774;BME280;59607;52.130;5.430;2023-11-21T03:26:15;101279.31;;;8.11;100.00
71774;BME280;59607;52.130;5.430;2023-11-21T03:28:45;101284.41;;;8.12;100.00
71774;BME280;59607;52.130;5.430;2023-11-21T03:31:15;101281.94;;;8.11;100.00
71774;BME280;59607;52.130;5.430;2023-11-21T03:33:46;101275.72;;;8.12;100.00
71774;BME280;59607;52.130;5.430;2023-11-21T03:36:19;101284.41;;;8.12;100.00
71774;BME280;59607;52.130;5.430;2023-11-21T03:38:48;101285.22;;;8.13;100.00
71774;BME280;59607;52.130;5.430;2023-11-21T03:41:21;101281.53;;;8.15;100.00
71774;BME280;59607;52.130;5.430;2023-11-21T03:43:47;101289.22;;;8.17;100.00
71774;BME280;59607;52.130;5.430;2023-11-21T03:46:14;101289.88;;;8.19;100.00
71774;BME280;59607;52.130;5.430;2023-11-21T03:48:41;101287.03;;;8.22;100.00
71774;BME280;59607;52.130;5.430;2023-11-21T03:51:13;101294.59;;;8.25;100.00
71774;BME280;59607;52.130;5.430;2023-11-21T03:53:43;101304.63;;;8.30;100.00
71774;BME280;59607;52.130;5.430;2023-11-21T03:56:15;101300.91;;;8.33;100.00
71774;BME280;59607;52.130;5.430;2023-11-21T03:58:42;101307.78;;;8.34;100.00
71774;BME280;59607;52.130;5.430;2023-11-21T04:01:12;101310.97;;;8.37;100.00
71774;BME280;59607;52.130;5.430;2023-11-21T04:03:44;101312.63;;;8.38;100.00
71774;BME280;59607;52.130;5.430;2023-11-21T04:06:15;101312.63;;;8.38;100.00
71774;BME280;59607;52.130;5.430;2023-11-21T04:08:41;101318.94;;;8.36;100.00
71774;BME280;59607;52.130;5.430;2023-11-21T04:11:08;101318.09;;;8.35;100.00
71774;BME280;59607;52.130;5.430;2023-11-21T04:13:38;101322.94;;;8.40;100.00
71774;BME280;59607;52.130;5.430;2023-11-21T04:16:06;101323.91;;;8.39;100.00
71774;BME280;59607;52.130;5.430;2023-11-21T04:18:36;101323.47;;;8.44;100.00
71774;BME280;59607;52.130;5.430;2023-11-21T04:21:11;101327.63;;;8.46;100.00
71774;BME280;59607;52.130;5.430;2023-11-21T04:23:38;101331.03;;;8.47;100.00
71774;BME280;59607;52.130;5.430;2023-11-21T04:26:11;101331.19;;;8.45;100.00
71774;BME280;59607;52.130;5.430;2023-11-21T04:28:37;101346.59;;;8.48;100.00
71774;BME280;59607;52.130;5.430;2023-11-21T04:31:14;101343.75;;;8.51;100.00
71774;BME280;59607;52.130;5.430;2023-11-21T04:33:40;101343.84;;;8.50;100.00
71774;BME280;59607;52.130;5.430;2023-11-21T04:36:12;101343.31;;;8.46;100.00
71774;BME280;59607;52.130;5.430;2023-11-21T04:38:41;101348.53;;;8.46;100.00
71774;BME280;59607;52.130;5.430;2023-11-21T04:41:13;101358.88;;;8.48;100.00
71774;BME280;59607;52.130;5.430;2023-11-21T04:43:39;101361.19;;;8.51;100.00
71774;BME280;59607;52.130;5.430;2023-11-21T04:46:06;101367.13;;;8.53;100.00
71774;BME280;59607;52.130;5.430;2023-11-21T04:48:36;101371.38;;;8.54;100.00
71774;BME280;59607;52.130;5.430;2023-11-21T04:51:03;101373.06;;;8.55;100.00
71774;BME280;59607;52.130;5.430;2023-11-21T04:53:30;101367.56;;;8.58;100.00
71774;BME280;59607;52.130;5.430;2023-11-21T04:56:06;101369.38;;;8.58;100.00
71774;BME280;59607;52.130;5.430;2023-11-21T04:58:32;101365.78;;;8.59;100.00
71774;BME280;59607;52.130;5.430;2023-11-21T05:01:08;101365.63;;;8.60;100.00
71774;BME280;59607;52.130;5.430;2023-11-21T05:03:35;101363.31;;;8.57;100.00
71774;BME280;59607;52.130;5.430;2023-11-21T05:06:05;101372.25;;;8.55;100.00
71774;BME280;59607;52.130;5.430;2023-11-21T05:08:32;101376.22;;;8.59;100.00
71774;BME280;59607;52.130;5.430;2023-11-21T05:10:59;101373.63;;;8.59;100.00
71774;BME280;59607;52.130;5.430;2023-11-21T05:13:29;101378.84;;;8.59;100.00
71774;BME280;59607;52.130;5.430;2023-11-21T05:15:56;101383.25;;;8.58;100.00
71774;BME280;59607;52.130;5.430;2023-11-21T05:18:23;101391.22;;;8.57;100.00
71774;BME280;59607;52.130;5.430;2023-11-21T05:20:59;101391.22;;;8.57;100.00
71774;BME280;59607;52.130;5.430;2023-11-21T05:23:27;101391.22;;;8.57;100.00
71774;BME280;59607;52.130;5.430;2023-11-21T05:25:56;101399.63;;;8.60;100.00
71774;BME280;59607;52.130;5.430;2023-11-21T05:28:23;101392.75;;;8.59;100.00
71774;BME280;59607;52.130;5.430;2023-11-21T05:30:49;101394.53;;;8.59;100.00
71774;BME280;59607;52.130;5.430;2023-11-21T05:33:26;101396.03;;;8.61;100.00
71774;BME280;59607;52.130;5.430;2023-11-21T05:35:52;101398.78;;;8.60;100.00
71774;BME280;59607;52.130;5.430;2023-11-21T05:38:19;101403.75;;;8.63;100.00
71774;BME280;59607;52.130;5.430;2023-11-21T05:40:51;101407.22;;;8.63;100.00
71774;BME280;59607;52.130;5.430;2023-11-21T05:43:17;101410.38;;;8.67;100.00
71774;BME280;59607;52.130;5.430;2023-11-21T05:45:51;101412.59;;;8.72;100.00
71774;BME280;59607;52.130;5.430;2023-11-21T05:48:18;101418.38;;;8.75;100.00
71774;BME280;59607;52.130;5.430;2023-11-21T05:50:47;101415.50;;;8.79;100.00
71774;BME280;59607;52.130;5.430;2023-11-21T05:53:15;101407.66;;;8.79;100.00
71774;BME280;59607;52.130;5.430;2023-11-21T05:55:43;101423.34;;;8.79;100.00
71774;BME280;59607;52.130;5.430;2023-11-21T05:58:13;101428.44;;;8.80;100.00
71774;BME280;59607;52.130;5.430;2023-11-21T06:00:40;101431.03;;;8.80;100.00
71774;BME280;59607;52.130;5.430;2023-11-21T06:03:06;101438.75;;;8.82;100.00
71774;BME280;59607;52.130;5.430;2023-11-21T06:05:42;101435.31;;;8.81;100.00
71774;BME280;59607;52.130;5.430;2023-11-21T06:08:09;101441.22;;;8.83;100.00
71774;BME280;59607;52.130;5.430;2023-11-21T06:10:37;101448.94;;;8.85;100.00
71774;BME280;59607;52.130;5.430;2023-11-21T06:13:06;101446.19;;;8.86;100.00
71774;BME280;59607;52.130;5.430;2023-11-21T06:15:34;101453.06;;;8.87;100.00
71774;BME280;59607;52.130;5.430;2023-11-21T06:18:03;101452.25;;;8.87;100.00
71774;BME280;59607;52.130;5.430;2023-11-21T06:20:30;101452.00;;;8.90;100.00
71774;BME280;59607;52.130;5.430;2023-11-21T06:22:56;101457.88;;;8.92;100.00
71774;BME280;59607;52.130;5.430;2023-11-21T06:25:29;101457.66;;;8.95;100.00
71774;BME280;59607;52.130;5.430;2023-11-21T06:27:59;101466.03;;;8.99;100.00
71774;BME280;59607;52.130;5.430;2023-11-21T06:30:28;101467.56;;;9.01;100.00
71774;BME280;59607;52.130;5.430;2023-11-21T06:33:00;101468.78;;;9.07;100.00
71774;BME280;59607;52.130;5.430;2023-11-21T06:35:27;101468.66;;;9.09;100.00
71774;BME280;59607;52.130;5.430;2023-11-21T06:38:01;101466.72;;;9.11;100.00
71774;BME280;59607;52.130;5.430;2023-11-21T06:40:29;101463.56;;;9.17;100.00
71774;BME280;59607;52.130;5.430;2023-11-21T06:43:02;101472.09;;;9.19;100.00
71774;BME280;59607;52.130;5.430;2023-11-21T06:45:29;101472.53;;;9.24;100.00
71774;BME280;59607;52.130;5.430;2023-11-21T06:47:58;101481.06;;;9.26;100.00
71774;BME280;59607;52.130;5.430;2023-11-21T06:50:28;101479.28;;;9.27;100.00
71774;BME280;59607;52.130;5.430;2023-11-21T06:52:54;101484.91;;;9.32;100.00
71774;BME280;59607;52.130;5.430;2023-11-21T06:55:24;101488.22;;;9.34;100.00
71774;BME280;59607;52.130;5.430;2023-11-21T06:57:50;101482.84;;;9.36;100.00
71774;BME280;59607;52.130;5.430;2023-11-21T07:00:18;101484.38;;;9.38;100.00
71774;BME280;59607;52.130;5.430;2023-11-21T07:02:48;101493.72;;;9.41;100.00
71774;BME280;59607;52.130;5.430;2023-11-21T07:05:22;101493.44;;;9.44;100.00
71774;BME280;59607;52.130;5.430;2023-11-21T07:08:03;101499.25;;;9.48;100.00
71774;BME280;59607;52.130;5.430;2023-11-21T07:10:33;101502.41;;;9.52;100.00
71774;BME280;59607;52.130;5.430;2023-11-21T07:13:04;101508.34;;;9.54;100.00
71774;BME280;59607;52.130;5.430;2023-11-21T07:15:34;101514.09;;;9.57;100.00
71774;BME280;59607;52.130;5.430;2023-11-21T07:18:00;101518.41;;;9.58;100.00
71774;BME280;59607;52.130;5.430;2023-11-21T07:20:27;101533.00;;;9.61;100.00
71774;BME280;59607;52.130;5.430;2023-11-21T07:22:54;101525.13;;;9.61;100.00
71774;BME280;59607;52.130;5.430;2023-11-21T07:25:29;101529.00;;;9.67;100.00
71774;BME280;59607;52.130;5.430;2023-11-21T07:27:55;101535.06;;;9.67;100.00
71774;BME280;59607;52.130;5.430;2023-11-21T07:30:36;101536.59;;;9.70;100.00
71774;BME280;59607;52.130;5.430;2023-11-21T07:33:09;101537.94;;;9.74;100.00
71774;BME280;59607;52.130;5.430;2023-11-21T07:35:36;101539.31;;;9.78;100.00
71774;BME280;59607;52.130;5.430;2023-11-21T07:38:05;101539.72;;;9.83;100.00
71774;BME280;59607;52.130;5.430;2023-11-21T07:40:33;101536.16;;;9.84;100.00
71774;BME280;59607;52.130;5.430;2023-11-21T07:42:59;101540.28;;;9.87;100.00
71774;BME280;59607;52.130;5.430;2023-11-21T07:45:26;101550.47;;;9.90;100.00
71774;BME280;59607;52.130;5.430;2023-11-21T07:48:21;101550.19;;;9.93;100.00
71774;BME280;59607;52.130;5.430;2023-11-21T07:50:47;101551.84;;;9.94;100.00
71774;BME280;59607;52.130;5.430;2023-11-21T07:53:14;101559.44;;;9.97;100.00
71774;BME280;59607;52.130;5.430;2023-11-21T07:55:40;101562.88;;;9.98;100.00
71774;BME280;59607;52.130;5.430;2023-11-21T07:58:07;101569.66;;;10.00;100.00
71774;BME280;59607;52.130;5.430;2023-11-21T08:00:36;101566.88;;;10.02;100.00
71774;BME280;59607;52.130;5.430;2023-11-21T08:03:07;101577.09;;;10.05;100.00
71774;BME280;59607;52.130;5.430;2023-11-21T08:05:33;101581.91;;;10.10;100.00
71774;BME280;59607;52.130;5.430;2023-11-21T08:08:08;101592.94;;;10.14;100.00
71774;BME280;59607;52.130;5.430;2023-11-21T08:10:34;101588.22;;;10.17;100.00
71774;BME280;59607;52.130;5.430;2023-11-21T08:13:25;101600.63;;;10.25;100.00
71774;BME280;59607;52.130;5.430;2023-11-21T08:15:57;101601.16;;;10.29;100.00
71774;BME280;59607;52.130;5.430;2023-11-21T08:18:35;101604.47;;;10.31;100.00
71774;BME280;59607;52.130;5.430;2023-11-21T08:21:03;101612.91;;;10.34;100.00
71774;BME280;59607;52.130;5.430;2023-11-21T08:23:51;101621.72;;;10.33;100.00
71774;BME280;59607;52.130;5.430;2023-11-21T08:26:23;101628.78;;;10.33;100.00
71774;BME280;59607;52.130;5.430;2023-11-21T08:29:00;101625.72;;;10.37;100.00
71774;BME280;59607;52.130;5.430;2023-11-21T08:31:27;101632.91;;;10.35;100.00
71774;BME280;59607;52.130;5.430;2023-11-21T08:34:01;101633.03;;;10.34;100.00
71774;BME280;59607;52.130;5.430;2023-11-21T08:36:29;101641.19;;;10.31;100.00
71774;BME280;59607;52.130;5.430;2023-11-21T08:39:00;101652.78;;;10.28;100.00
71774;BME280;59607;52.130;5.430;2023-11-21T08:41:30;101657.34;;;10.26;100.00
71774;BME280;59607;52.130;5.430;2023-11-21T08:44:07;101667.97;;;10.24;100.00
71774;BME280;59607;52.130;5.430;2023-11-21T08:46:34;101664.38;;;10.25;100.00
71774;BME280;59607;52.130;5.430;2023-11-21T08:49:05;101666.03;;;10.27;100.00
71774;BME280;59607;52.130;5.430;2023-11-21T08:51:34;101677.19;;;10.29;100.00
71774;BME280;59607;52.130;5.430;2023-11-21T08:54:03;101680.66;;;10.29;100.00
71774;BME280;59607;52.130;5.430;2023-11-21T08:56:38;101672.09;;;10.27;100.00
71774;BME280;59607;52.130;5.430;2023-11-21T08:59:07;101670.31;;;10.28;100.00
71774;BME280;59607;52.130;5.430;2023-11-21T09:01:41;101671.94;;;10.29;100.00
71774;BME280;59607;52.130;5.430;2023-11-21T09:04:13;101671.38;;;10.35;100.00
71774;BME280;59607;52.130;5.430;2023-11-21T09:06:42;101667.41;;;10.41;100.00
71774;BME280;59607;52.130;5.430;2023-11-21T09:09:14;101685.34;;;10.55;100.00
71774;BME280;59607;52.130;5.430;2023-11-21T09:11:41;101696.63;;;10.66;100.00
71774;BME280;59607;52.130;5.430;2023-11-21T09:14:07;101698.88;;;10.60;100.00
71774;BME280;59607;52.130;5.430;2023-11-21T09:16:35;101711.28;;;10.58;100.00
71774;BME280;59607;52.130;5.430;2023-11-21T09:19:07;101714.34;;;10.54;100.00
71774;BME280;59607;52.130;5.430;2023-11-21T09:21:33;101712.53;;;10.44;100.00
71774;BME280;59607;52.130;5.430;2023-11-21T09:24:03;101716.25;;;10.42;100.00
71774;BME280;59607;52.130;5.430;2023-11-21T09:26:40;101713.34;;;10.45;100.00
71774;BME280;59607;52.130;5.430;2023-11-21T09:29:06;101716.94;;;10.44;100.00
71774;BME280;59607;52.130;5.430;2023-11-21T09:31:36;101726.59;;;10.43;100.00
71774;BME280;59607;52.130;5.430;2023-11-21T09:34:05;101729.22;;;10.43;100.00
71774;BME280;59607;52.130;5.430;2023-11-21T09:36:36;101738.06;;;10.42;100.00
71774;BME280;59607;52.130;5.430;2023-11-21T09:39:11;101744.28;;;10.41;100.00
71774;BME280;59607;52.130;5.430;2023-11-21T09:41:59;101753.81;;;10.42;100.00
71774;BME280;59607;52.130;5.430;2023-11-21T09:44:54;101755.16;;;10.36;100.00
71774;BME280;59607;52.130;5.430;2023-11-21T09:47:50;101768.69;;;10.32;100.00
71774;BME280;59607;52.130;5.430;2023-11-21T09:50:24;101768.84;;;10.30;100.00
71774;BME280;59607;52.130;5.430;2023-11-21T09:55:37;101781.78;;;10.22;100.00
71774;BME280;59607;52.130;5.430;2023-11-21T09:58:11;101775.88;;;10.20;100.00
71774;BME280;59607;52.130;5.430;2023-11-21T10:00:53;101786.09;;;10.23;100.00
71774;BME280;59607;52.130;5.430;2023-11-21T10:03:30;101779.88;;;10.24;100.00
71774;BME280;59607;52.130;5.430;2023-11-21T10:05:58;101785.13;;;10.24;100.00
71774;BME280;59607;52.130;5.430;2023-11-21T10:08:31;101791.75;;;10.18;100.00
71774;BME280;59607;52.130;5.430;2023-11-21T10:11:17;101794.66;;;10.15;100.00
71774;BME280;59607;52.130;5.430;2023-11-21T10:13:57;101792.44;;;10.10;100.00
71774;BME280;59607;52.130;5.430;2023-11-21T10:16:26;101789.13;;;10.08;100.00
71774;BME280;59607;52.130;5.430;2023-11-21T10:18:58;101810.22;;;10.07;100.00
71774;BME280;59607;52.130;5.430;2023-11-21T10:21:39;101812.28;;;10.13;100.00
71774;BME280;59607;52.130;5.430;2023-11-21T10:24:06;101816.00;;;10.20;100.00
71774;BME280;59607;52.130;5.430;2023-11-21T10:26:37;101816.88;;;10.31;100.00
71774;BME280;59607;52.130;5.430;2023-11-21T10:29:22;101824.19;;;10.37;100.00
71774;BME280;59607;52.130;5.430;2023-11-21T10:32:09;101823.91;;;10.40;100.00
71774;BME280;59607;52.130;5.430;2023-11-21T10:34:56;101829.84;;;10.42;100.00
71774;BME280;59607;52.130;5.430;2023-11-21T10:37:28;101828.88;;;10.43;100.00
71774;BME280;59607;52.130;5.430;2023-11-21T10:40:02;101839.22;;;10.35;100.00
71774;BME280;59607;52.130;5.430;2023-11-21T10:42:34;101845.41;;;10.24;100.00
71774;BME280;59607;52.130;5.430;2023-11-21T10:45:01;101848.19;;;10.22;100.00
71774;BME280;59607;52.130;5.430;2023-11-21T10:47:32;101870.25;;;10.20;100.00
71774;BME280;59607;52.130;5.430;2023-11-21T10:50:00;101869.13;;;10.12;100.00
71774;BME280;59607;52.130;5.430;2023-11-21T10:52:30;101867.75;;;10.08;100.00
71774;BME280;59607;52.130;5.430;2023-11-21T10:55:00;101873.41;;;10.04;100.00
71774;BME280;59607;52.130;5.430;2023-11-21T10:57:37;101885.53;;;10.05;100.00
71774;BME280;59607;52.130;5.430;2023-11-21T11:00:18;101882.91;;;10.05;100.00
71774;BME280;59607;52.130;5.430;2023-11-21T11:02:51;101890.78;;;10.05;100.00
71774;BME280;59607;52.130;5.430;2023-11-21T11:05:25;101890.06;;;10.03;100.00
71774;BME280;59607;52.130;5.430;2023-11-21T11:08:02;101884.69;;;10.04;100.00
71774;BME280;59607;52.130;5.430;2023-11-21T11:10:31;101892.16;;;10.09;100.00
71774;BME280;59607;52.130;5.430;2023-11-21T11:13:00;101884.19;;;10.10;100.00
71774;BME280;59607;52.130;5.430;2023-11-21T11:15:31;101884.84;;;10.12;100.00
71774;BME280;59607;52.130;5.430;2023-11-21T11:18:03;101889.44;;;10.10;100.00
71774;BME280;59607;52.130;5.430;2023-11-21T11:20:39;101890.06;;;10.03;100.00
71774;BME280;59607;52.130;5.430;2023-11-21T11:23:11;101879.97;;;9.98;100.00
71774;BME280;59607;52.130;5.430;2023-11-21T11:28:47;101902.06;;;9.95;100.00
71774;BME280;59607;52.130;5.430;2023-11-21T11:34:19;101901.94;;;9.97;100.00
71774;BME280;59607;52.130;5.430;2023-11-21T11:37:03;101904.72;;;10.05;100.00
71774;BME280;59607;52.130;5.430;2023-11-21T11:39:40;101911.22;;;10.11;100.00
71774;BME280;59607;52.130;5.430;2023-11-21T11:42:15;101901.28;;;10.15;100.00
71774;BME280;59607;52.130;5.430;2023-11-21T11:47:35;101910.00;;;10.15;100.00
71774;BME280;59607;52.130;5.430;2023-11-21T11:50:05;101911.91;;;10.13;100.00
71774;BME280;59607;52.130;5.430;2023-11-21T11:52:50;101922.13;;;10.16;100.00
71774;BME280;59607;52.130;5.430;2023-11-21T11:55:20;101927.09;;;10.19;100.00
71774;BME280;59607;52.130;5.430;2023-11-21T11:57:52;101926.13;;;10.20;100.00
71774;BME280;59607;52.130;5.430;2023-11-21T12:03:01;101932.63;;;10.16;100.00
71774;BME280;59607;52.130;5.430;2023-11-21T12:05:33;101934.13;;;10.19;100.00
71774;BME280;59607;52.130;5.430;2023-11-21T12:08:03;101943.69;;;10.20;100.00
71774;BME280;59607;52.130;5.430;2023-11-21T12:10:36;101943.94;;;10.17;100.00
71774;BME280;59607;52.130;5.430;2023-11-21T12:13:08;101945.16;;;10.12;100.00
71774;BME280;59607;52.130;5.430;2023-11-21T12:15:39;101946.84;;;10.14;100.00
71774;BME280;59607;52.130;5.430;2023-11-21T12:18:09;101947.09;;;10.10;100.00
71774;BME280;59607;52.130;5.430;2023-11-21T12:20:41;101956.63;;;10.11;100.00
71774;BME280;59607;52.130;5.430;2023-11-21T12:23:09;101959.63;;;10.07;100.00
71774;BME280;59607;52.130;5.430;2023-11-21T12:25:44;101956.88;;;10.08;100.00
71774;BME280;59607;52.130;5.430;2023-11-21T12:28:11;101960.44;;;10.07;100.00
71774;BME280;59607;52.130;5.430;2023-11-21T12:30:50;101959.75;;;10.05;100.00
71774;BME280;59607;52.130;5.430;2023-11-21T12:33:20;101969.53;;;10.03;100.00
71774;BME280;59607;52.130;5.430;2023-11-21T12:35:50;101956.84;;;9.98;100.00
71774;BME280;59607;52.130;5.430;2023-11-21T12:38:16;101957.41;;;10.02;100.00
71774;BME280;59607;52.130;5.430;2023-11-21T12:40:48;101967.19;;;10.00;100.00
71774;BME280;59607;52.130;5.430;2023-11-21T12:43:18;101964.69;;;9.98;100.00
71774;BME280;59607;52.130;5.430;2023-11-21T12:45:51;101972.94;;;9.94;100.00
71774;BME280;59607;52.130;5.430;2023-11-21T12:48:37;101968.38;;;9.86;100.00
71774;BME280;59607;52.130;5.430;2023-11-21T12:51:09;101980.75;;;9.84;100.00
71774;BME280;59607;52.130;5.430;2023-11-21T12:53:41;101980.38;;;9.88;100.00
71774;BME280;59607;52.130;5.430;2023-11-21T12:56:10;101983.44;;;9.94;100.00
71774;BME280;59607;52.130;5.430;2023-11-21T12:58:38;101991.16;;;9.95;100.00
71774;BME280;59607;52.130;5.430;2023-11-21T13:01:08;101986.63;;;9.97;100.00
71774;BME280;59607;52.130;5.430;2023-11-21T13:03:48;101989.00;;;10.00;100.00
71774;BME280;59607;52.130;5.430;2023-11-21T13:06:19;101996.47;;;10.05;100.00
71774;BME280;59607;52.130;5.430;2023-11-21T13:08:55;101999.25;;;10.14;100.00
71774;BME280;59607;52.130;5.430;2023-11-21T13:11:24;102002.88;;;10.22;100.00
71774;BME280;59607;52.130;5.430;2023-11-21T13:13:55;102013.63;;;10.19;100.00
71774;BME280;59607;52.130;5.430;2023-11-21T13:16:25;102003.13;;;10.19;100.00
71774;BME280;59607;52.130;5.430;2023-11-21T13:18:52;102004.28;;;10.27;100.00